Time;durP1;ratioP1;P1;durP2;ratioP2;P2;SDS_P1;SDS_P2;PMS_P1;PMS_P2;Temp;Humidity;BMP_temperature;BMP_pressure;BME280_temperature;BME280_humidity;BME280_pressure;Samples;Min_cycle;Max_cycle;Signal;HPM_P1;HPM_P2
2022/05/07 00:01:28;;;;;;;3.45;2.65;;;12.90;99.90;;;;;;4977294;28;20543;-85
2022/05/07 00:03:54;;;;;;;4.45;2.72;;;12.90;99.90;;;;;;4994171;28;20180;-85
2022/05/07 00:06:20;;;;;;;5.70;2.80;;;12.80;99.90;;;;;;4993233;28;20215;-85
2022/05/07 00:08:45;;;;;;;4.15;2.70;;;12.80;99.90;;;;;;4993940;28;20180;-85
2022/05/07 00:11:15;;;;;;;4.82;2.97;;;12.80;99.90;;;;;;4993767;28;20208;-85
2022/05/07 00:13:41;;;;;;;3.13;2.72;;;12.70;99.90;;;;;;4994232;28;20188;-85
2022/05/07 00:18:51;;;;;;;5.40;3.33;;;12.70;99.90;;;;;;5006642;28;20584;-86
2022/05/07 00:21:16;;;;;;;4.35;3.03;;;12.60;99.90;;;;;;4982446;28;20278;-86
2022/05/07 00:23:42;;;;;;;3.45;2.60;;;12.60;99.90;;;;;;5005956;28;20278;-86
2022/05/07 00:26:08;;;;;;;4.85;2.92;;;12.60;99.90;;;;;;5005277;28;20545;-86
2022/05/07 00:28:36;;;;;;;9.00;3.53;;;12.50;99.90;;;;;;4997248;28;20186;-86
2022/05/07 00:31:01;;;;;;;9.48;4.25;;;12.50;99.90;;;;;;4996612;28;20211;-86
2022/05/07 00:33:27;;;;;;;5.68;3.30;;;12.40;99.90;;;;;;4980267;28;20192;-86
2022/05/07 00:35:53;;;;;;;6.25;3.10;;;12.40;99.90;;;;;;4996072;28;20539;-86
2022/05/07 00:38:18;;;;;;;5.28;3.22;;;12.30;99.90;;;;;;4997267;28;20184;-85
2022/05/07 00:40:44;;;;;;;7.03;3.17;;;12.30;99.90;;;;;;4997686;28;20187;-86
2022/05/07 00:43:15;;;;;;;4.25;3.08;;;12.30;99.90;;;;;;4997809;28;20237;-86
2022/05/07 00:45:43;;;;;;;7.25;3.50;;;12.20;99.90;;;;;;5012781;28;20237;-85
2022/05/07 00:48:08;;;;;;;5.82;3.22;;;12.30;99.90;;;;;;4997314;28;20198;-86
2022/05/07 00:53:19;;;;;;;4.97;2.83;;;12.20;99.90;;;;;;4997373;28;20218;-86
2022/05/07 00:55:44;;;;;;;3.85;3.22;;;12.20;99.90;;;;;;4997141;28;20176;-86
2022/05/07 00:58:10;;;;;;;5.95;3.30;;;12.10;99.90;;;;;;4997303;28;20183;-86
2022/05/07 01:00:36;;;;;;;7.60;3.20;;;11.90;99.90;;;;;;5000615;28;20187;-85
2022/05/07 01:03:04;;;;;;;5.47;3.38;;;11.70;99.90;;;;;;4985933;28;20614;-86
2022/05/07 01:05:31;;;;;;;5.53;3.45;;;11.60;99.90;;;;;;4996642;28;20214;-86
2022/05/07 01:07:57;;;;;;;4.50;3.10;;;11.60;99.90;;;;;;4979231;28;20190;-85
2022/05/07 01:10:23;;;;;;;4.82;3.20;;;11.60;99.90;;;;;;4979460;28;20282;-85
2022/05/07 01:12:49;;;;;;;5.05;2.88;;;11.60;99.90;;;;;;4996180;28;20202;-86
2022/05/07 01:15:15;;;;;;;4.32;3.17;;;11.60;99.90;;;;;;4989840;28;20187;-86
2022/05/07 01:17:40;;;;;;;6.07;3.30;;;11.50;99.90;;;;;;5315873;23;20232;-78
2022/05/07 01:20:09;;;;;;;4.65;3.20;;;11.50;99.90;;;;;;4973392;28;20185;-77
2022/05/07 01:22:35;;;;;;;3.22;2.90;;;11.60;99.90;;;;;;4976352;28;20184;-78
2022/05/07 01:25:01;;;;;;;4.25;2.92;;;11.60;99.90;;;;;;4975474;28;20271;-78
2022/05/07 01:27:27;;;;;;;5.13;3.15;;;11.60;99.90;;;;;;4976480;28;20491;-78
2022/05/07 01:29:53;;;;;;;8.45;3.50;;;11.60;99.90;;;;;;4976644;28;20231;-78
2022/05/07 01:32:18;;;;;;;4.22;3.20;;;11.70;99.90;;;;;;4976515;28;20262;-78
2022/05/07 01:34:44;;;;;;;4.78;3.28;;;11.60;99.90;;;;;;4976357;28;20185;-78
2022/05/07 01:37:10;;;;;;;5.70;3.40;;;11.60;99.90;;;;;;4976140;28;20176;-78
2022/05/07 01:39:35;;;;;;;7.28;3.63;;;11.60;99.90;;;;;;4976568;28;20650;-78
2022/05/07 01:42:01;;;;;;;5.18;2.92;;;11.60;99.90;;;;;;4976389;28;20188;-78
2022/05/07 01:44:26;;;;;;;5.22;3.03;;;11.50;99.90;;;;;;4975895;28;20181;-78
2022/05/07 01:49:36;;;;;;;5.00;3.30;;;11.50;99.90;;;;;;4975769;28;20620;-78
2022/05/07 01:52:02;;;;;;;5.55;3.50;;;11.40;99.90;;;;;;4976185;28;20244;-78
2022/05/07 01:54:28;;;;;;;5.18;3.58;;;11.50;99.90;;;;;;4975816;28;20260;-78
2022/05/07 01:56:53;;;;;;;6.83;3.50;;;11.50;99.90;;;;;;4974999;28;20223;-78
2022/05/07 01:59:19;;;;;;;4.93;3.40;;;11.40;99.90;;;;;;4975924;28;20264;-78
2022/05/07 02:01:45;;;;;;;5.18;3.60;;;11.40;99.90;;;;;;4975994;28;20177;-78
2022/05/07 02:04:10;;;;;;;6.85;3.70;;;11.40;99.90;;;;;;4975140;28;20188;-78
2022/05/07 02:06:36;;;;;;;4.05;3.53;;;11.40;99.90;;;;;;4990648;28;20631;-78
2022/05/07 02:09:02;;;;;;;6.10;3.60;;;11.40;99.90;;;;;;4975621;28;20204;-78
2022/05/07 02:11:28;;;;;;;7.07;3.70;;;11.30;99.90;;;;;;4975530;28;20295;-77
2022/05/07 02:13:54;;;;;;;5.50;3.85;;;11.40;99.90;;;;;;4975346;28;20177;-78
2022/05/07 02:16:20;;;;;;;6.60;3.70;;;11.30;99.90;;;;;;4975429;28;20184;-78
2022/05/07 02:18:45;;;;;;;6.28;4.13;;;11.30;99.90;;;;;;4993370;28;20337;-78
2022/05/07 02:21:11;;;;;;;6.57;3.95;;;11.30;99.90;;;;;;4994926;28;20683;-78
2022/05/07 02:23:36;;;;;;;5.10;3.90;;;11.20;99.90;;;;;;4995058;28;20187;-78
2022/05/07 02:26:02;;;;;;;8.30;4.00;;;11.30;99.90;;;;;;4995141;28;20194;-78
2022/05/07 02:28:28;;;;;;;7.93;3.90;;;11.30;99.90;;;;;;4994988;28;20175;-77
2022/05/07 02:30:53;;;;;;;6.50;3.88;;;11.20;99.90;;;;;;4994595;28;20207;-78
2022/05/07 02:33:19;;;;;;;4.88;3.75;;;11.10;99.90;;;;;;4995229;28;20184;-78
2022/05/07 02:35:45;;;;;;;6.38;3.50;;;11.00;99.90;;;;;;4995023;28;20267;-78
2022/05/07 02:38:11;;;;;;;4.60;3.22;;;11.00;99.90;;;;;;4994044;28;20713;-78
2022/05/07 02:43:21;;;;;;;5.93;3.20;;;10.90;99.90;;;;;;4994764;28;20179;-78
2022/05/07 02:45:46;;;;;;;5.22;3.95;;;11.00;99.90;;;;;;4992071;28;20183;-78
2022/05/07 02:48:12;;;;;;;5.78;3.70;;;10.90;99.90;;;;;;4983032;28;20187;-78
2022/05/07 02:50:38;;;;;;;5.60;3.67;;;10.90;99.90;;;;;;5013269;28;20260;-78
2022/05/07 02:53:03;;;;;;;6.30;3.40;;;10.90;99.90;;;;;;5013366;28;20175;-78
2022/05/07 02:55:29;;;;;;;6.25;3.83;;;11.00;99.90;;;;;;5013912;28;20186;-78
2022/05/07 02:57:54;;;;;;;8.38;3.80;;;10.90;99.90;;;;;;5013751;28;20225;-78
2022/05/07 03:00:20;;;;;;;8.98;3.63;;;10.90;99.90;;;;;;5010184;28;20210;-78
2022/05/07 03:02:47;;;;;;;4.93;3.70;;;10.80;99.90;;;;;;5012010;28;20262;-78
2022/05/07 03:05:12;;;;;;;6.77;3.90;;;10.70;99.90;;;;;;5013992;28;20183;-78
2022/05/07 03:07:38;;;;;;;5.37;3.60;;;10.80;99.90;;;;;;4997206;28;20199;-77
2022/05/07 03:10:04;;;;;;;5.17;3.53;;;10.70;99.90;;;;;;4994831;28;20200;-77
2022/05/07 03:12:30;;;;;;;5.73;3.43;;;10.80;99.90;;;;;;4995021;28;20708;-77
2022/05/07 03:14:55;;;;;;;6.60;3.83;;;10.80;99.90;;;;;;4994694;28;20247;-78
2022/05/07 03:17:23;;;;;;;4.90;3.57;;;10.80;99.90;;;;;;4994604;28;20314;-78
2022/05/07 03:19:48;;;;;;;6.90;3.87;;;10.80;99.90;;;;;;4994870;28;20172;-78
2022/05/07 03:22:14;;;;;;;4.28;3.50;;;10.80;99.90;;;;;;5003794;28;20245;-78
2022/05/07 03:24:41;;;;;;;6.00;4.20;;;10.90;99.90;;;;;;5014197;28;20258;-77
2022/05/07 03:27:07;;;;;;;8.38;3.83;;;10.90;99.90;;;;;;5014587;28;20194;-77
2022/05/07 03:29:33;;;;;;;4.75;3.40;;;11.00;99.90;;;;;;5014304;28;20274;-78
2022/05/07 03:31:58;;;;;;;5.47;3.65;;;11.00;99.90;;;;;;5014145;28;20210;-77
2022/05/07 03:34:24;;;;;;;4.47;3.70;;;11.00;99.90;;;;;;5014295;28;20179;-78
2022/05/07 03:36:50;;;;;;;5.32;3.40;;;11.10;99.90;;;;;;5010774;28;20187;-78
2022/05/07 03:39:16;;;;;;;4.82;3.67;;;11.10;99.90;;;;;;4994361;28;20215;-78
2022/05/07 03:41:42;;;;;;;4.10;3.58;;;11.10;99.90;;;;;;4994519;28;20180;-78
2022/05/07 03:44:07;;;;;;;5.45;3.42;;;11.10;99.90;;;;;;4992743;28;20234;-78
2022/05/07 03:46:33;;;;;;;6.70;3.60;;;11.20;99.90;;;;;;4994533;28;20195;-78
2022/05/07 03:48:59;;;;;;;7.32;3.65;;;11.20;99.90;;;;;;4994846;28;20622;-78
2022/05/07 03:51:25;;;;;;;6.25;3.83;;;11.20;99.90;;;;;;4998333;28;20289;-78
2022/05/07 03:53:51;;;;;;;5.88;3.13;;;11.20;99.90;;;;;;4996883;28;20178;-78
2022/05/07 03:56:16;;;;;;;5.68;3.50;;;11.20;99.90;;;;;;4998358;28;20180;-78
2022/05/07 03:58:42;;;;;;;7.00;3.60;;;11.30;99.90;;;;;;4997988;28;20180;-77
2022/05/07 04:01:08;;;;;;;5.38;3.55;;;11.30;99.90;;;;;;4998262;28;20188;-77
2022/05/07 04:03:34;;;;;;;5.15;3.45;;;11.30;99.90;;;;;;4997963;28;20166;-77
2022/05/07 04:06:00;;;;;;;4.25;3.17;;;11.40;99.90;;;;;;4998169;28;20238;-77
2022/05/07 04:08:26;;;;;;;6.32;3.65;;;11.40;99.90;;;;;;4979780;28;20175;-78
2022/05/07 04:10:52;;;;;;;7.20;3.67;;;11.50;99.90;;;;;;4998029;28;20202;-78
2022/05/07 04:13:18;;;;;;;5.90;3.72;;;11.50;99.90;;;;;;4995992;28;20184;-78
2022/05/07 04:15:44;;;;;;;5.57;3.65;;;11.50;99.90;;;;;;4980629;28;20582;-78
2022/05/07 04:18:11;;;;;;;6.43;3.17;;;11.50;99.90;;;;;;5016527;28;20237;-77
2022/05/07 04:20:37;;;;;;;5.00;3.47;;;11.60;99.90;;;;;;4999684;28;20207;-77
2022/05/07 04:23:04;;;;;;;5.53;3.28;;;11.60;99.90;;;;;;5016969;28;20171;-78
2022/05/07 04:25:30;;;;;;;6.65;3.67;;;11.60;99.90;;;;;;5017348;28;20269;-78
2022/05/07 04:27:56;;;;;;;4.70;3.40;;;11.60;99.90;;;;;;5016995;28;20225;-78
2022/05/07 04:30:22;;;;;;;5.25;3.10;;;11.60;99.90;;;;;;5017028;28;20306;-78
2022/05/07 04:32:49;;;;;;;5.18;3.40;;;11.60;99.90;;;;;;5017296;28;20179;-78
2022/05/07 04:35:15;;;;;;;4.75;3.75;;;11.70;99.90;;;;;;5017223;28;20617;-77
2022/05/07 04:37:40;;;;;;;5.72;4.25;;;11.70;99.90;;;;;;5006776;28;20188;-78
2022/05/07 04:40:09;;;;;;;5.80;3.67;;;11.70;99.90;;;;;;4997677;28;20230;-78
2022/05/07 04:42:35;;;;;;;6.50;4.28;;;11.70;99.90;;;;;;5000290;28;20192;-78
2022/05/07 04:45:01;;;;;;;5.18;3.42;;;11.70;99.90;;;;;;5016798;28;20168;-78
2022/05/07 04:47:27;;;;;;;7.05;4.07;;;11.80;99.90;;;;;;4998714;28;20546;-78
2022/05/07 04:49:52;;;;;;;8.32;3.80;;;11.80;99.90;;;;;;5016602;28;20622;-78
2022/05/07 04:52:18;;;;;;;7.63;4.07;;;11.80;99.90;;;;;;5016895;28;20214;-78
2022/05/07 04:54:44;;;;;;;6.05;3.83;;;11.80;99.90;;;;;;5016686;28;20195;-78
2022/05/07 04:57:09;;;;;;;6.95;3.90;;;11.90;99.90;;;;;;5016635;28;20266;-78
2022/05/07 04:59:35;;;;;;;5.65;3.95;;;11.90;99.90;;;;;;5016303;28;20181;-78
2022/05/07 05:02:01;;;;;;;4.72;3.80;;;11.90;99.90;;;;;;4998755;28;20212;-78
2022/05/07 05:04:26;;;;;;;7.68;4.03;;;12.00;99.90;;;;;;5016521;28;20203;-78
2022/05/07 05:06:52;;;;;;;7.53;3.80;;;12.00;99.90;;;;;;5012730;28;20945;-78
2022/05/07 05:09:17;;;;;;;4.90;3.50;;;12.00;99.90;;;;;;4996661;28;20172;-77
2022/05/07 05:11:43;;;;;;;5.43;3.38;;;12.00;99.90;;;;;;4996826;28;20310;-78
2022/05/07 05:16:53;;;;;;;5.28;3.80;;;12.10;99.90;;;;;;4996976;28;20234;-78
2022/05/07 05:19:19;;;;;;;4.68;3.67;;;12.10;99.90;;;;;;4996733;28;20168;-78
2022/05/07 05:21:45;;;;;;;4.93;3.97;;;12.20;99.90;;;;;;4996674;28;20183;-77
2022/05/07 05:24:12;;;;;;;4.85;3.70;;;12.20;99.90;;;;;;4996220;28;20171;-77
2022/05/07 05:26:37;;;;;;;6.13;4.15;;;12.30;99.90;;;;;;4996200;28;20187;-77
2022/05/07 05:29:03;;;;;;;8.23;3.88;;;12.40;99.90;;;;;;4996336;28;20180;-77
2022/05/07 05:31:30;;;;;;;4.78;3.42;;;12.40;99.90;;;;;;4996463;28;20289;-77
2022/05/07 05:33:57;;;;;;;5.72;3.85;;;12.40;99.90;;;;;;4979065;28;20203;-77
2022/05/07 05:36:24;;;;;;;4.72;3.90;;;12.50;99.90;;;;;;4996389;28;20183;-77
2022/05/07 05:38:50;;;;;;;5.63;3.90;;;12.60;99.90;;;;;;4995258;28;20179;-77
2022/05/07 05:41:15;;;;;;;6.20;4.07;;;12.60;99.90;;;;;;4996394;28;20226;-77
2022/05/07 05:43:41;;;;;;;5.90;4.43;;;12.60;99.90;;;;;;4995741;28;20175;-77
2022/05/07 05:46:07;;;;;;;5.40;3.97;;;12.70;99.90;;;;;;4996399;28;20184;-78
2022/05/07 05:48:32;;;;;;;5.75;4.25;;;12.80;99.90;;;;;;4995955;28;20168;-77
2022/05/07 05:50:59;;;;;;;5.47;4.55;;;12.90;99.90;;;;;;5003821;28;20214;-77
2022/05/07 05:53:25;;;;;;;4.82;4.30;;;13.00;99.90;;;;;;5015510;28;20226;-77
2022/05/07 05:55:51;;;;;;;5.63;4.25;;;13.10;99.90;;;;;;5015472;28;20179;-77
2022/05/07 05:58:17;;;;;;;5.25;4.05;;;13.10;99.90;;;;;;5014514;28;20202;-78
2022/05/07 06:00:43;;;;;;;5.65;4.40;;;13.20;99.90;;;;;;5015581;28;20171;-77
2022/05/07 06:03:08;;;;;;;8.68;4.63;;;13.20;99.90;;;;;;5015461;28;20186;-77
2022/05/07 06:05:34;;;;;;;7.43;4.50;;;13.30;99.90;;;;;;5015504;28;20166;-77
2022/05/07 06:08:00;;;;;;;8.30;4.63;;;13.40;99.90;;;;;;5001993;28;20184;-77
2022/05/07 06:10:26;;;;;;;10.18;5.55;;;13.50;99.90;;;;;;4995480;28;20172;-77
2022/05/07 06:12:51;;;;;;;7.50;4.88;;;13.60;99.90;;;;;;5000026;28;20183;-78
2022/05/07 06:15:17;;;;;;;6.25;5.22;;;13.70;99.90;;;;;;5015413;28;20170;-78
2022/05/07 06:17:43;;;;;;;7.60;5.05;;;13.70;99.90;;;;;;5015116;28;20223;-77
2022/05/07 06:20:09;;;;;;;7.60;5.55;;;13.80;99.90;;;;;;5015260;28;20180;-77
2022/05/07 06:22:35;;;;;;;10.40;5.45;;;13.90;99.90;;;;;;5001099;28;20173;-77
2022/05/07 06:27:44;;;;;;;5.78;5.18;;;13.90;99.90;;;;;;4975962;28;20168;-77
2022/05/07 06:30:10;;;;;;;7.15;5.82;;;14.00;99.90;;;;;;4975965;28;20181;-78
2022/05/07 06:32:40;;;;;;;13.43;6.10;;;14.10;99.90;;;;;;4975802;28;20204;-78
2022/05/07 06:35:08;;;;;;;12.07;6.25;;;14.30;99.90;;;;;;4989845;28;20300;-77
2022/05/07 06:37:34;;;;;;;10.65;6.00;;;14.40;99.90;;;;;;4995153;28;20188;-78
2022/05/07 06:40:02;;;;;;;10.23;6.72;;;14.50;99.90;;;;;;4994992;28;20172;-77
2022/05/07 06:42:28;;;;;;;10.05;6.38;;;14.60;99.90;;;;;;4994624;28;20175;-78
2022/05/07 06:44:54;;;;;;;7.65;6.03;;;14.70;99.90;;;;;;4995247;28;20608;-78
2022/05/07 06:47:20;;;;;;;11.82;7.10;;;14.90;99.90;;;;;;4995213;28;20183;-78
2022/05/07 06:49:46;;;;;;;14.13;6.60;;;15.00;99.90;;;;;;4994922;28;20249;-78
2022/05/07 06:52:12;;;;;;;8.85;7.25;;;15.10;99.90;;;;;;4994951;28;20212;-78
2022/05/07 06:54:38;;;;;;;8.93;6.75;;;15.30;99.90;;;;;;4994747;28;20178;-78
2022/05/07 06:57:04;;;;;;;8.43;6.97;;;15.40;99.90;;;;;;4977486;28;20274;-78
2022/05/07 06:59:33;;;;;;;11.13;7.50;;;15.70;99.90;;;;;;4992761;28;20525;-77
2022/05/07 07:01:59;;;;;;;7.97;6.72;;;15.90;99.90;;;;;;4994936;28;20211;-78
2022/05/07 07:04:25;;;;;;;9.50;7.45;;;16.00;99.90;;;;;;4994629;28;20314;-78
2022/05/07 07:06:51;;;;;;;10.63;6.93;;;16.30;99.90;;;;;;4994915;28;20216;-77
2022/05/07 07:09:17;;;;;;;11.15;6.90;;;16.30;99.90;;;;;;4994457;28;20267;-79
2022/05/07 07:11:44;;;;;;;8.52;6.75;;;16.30;99.90;;;;;;4994431;28;20241;-78
2022/05/07 07:14:10;;;;;;;12.20;7.50;;;16.30;99.90;;;;;;4994053;28;20180;-77
2022/05/07 07:16:36;;;;;;;9.45;6.80;;;16.40;99.90;;;;;;4994590;28;20195;-78
2022/05/07 07:19:02;;;;;;;10.52;6.82;;;16.40;99.90;;;;;;4992749;28;20183;-78
2022/05/07 07:21:28;;;;;;;9.98;6.70;;;16.30;99.90;;;;;;4993231;28;20198;-78
2022/05/07 07:23:53;;;;;;;9.43;6.65;;;16.20;99.90;;;;;;4996057;28;20203;-78
2022/05/07 07:26:20;;;;;;;8.82;6.60;;;16.10;99.90;;;;;;4998936;28;20187;-78
2022/05/07 07:28:46;;;;;;;9.30;6.97;;;16.00;99.90;;;;;;4999806;28;20178;-78
2022/05/07 07:31:13;;;;;;;11.07;7.85;;;16.00;99.90;;;;;;5011415;28;20214;-78
2022/05/07 07:33:39;;;;;;;11.70;7.60;;;16.00;99.90;;;;;;5008238;28;20294;-79
2022/05/07 07:36:10;;;;;;;9.35;7.63;;;15.90;99.90;;;;;;5003635;28;20187;-79
2022/05/07 07:38:37;;;;;;;11.57;6.93;;;15.90;99.90;;;;;;4999821;28;20172;-79
2022/05/07 07:41:03;;;;;;;11.32;8.10;;;15.90;99.90;;;;;;5003307;28;20180;-78
2022/05/07 07:43:32;;;;;;;9.27;7.50;;;15.80;99.90;;;;;;5005155;28;20563;-78
2022/05/07 07:48:42;;;;;;;11.55;7.63;;;15.80;99.90;;;;;;5001138;28;20511;-79
2022/05/07 07:51:08;;;;;;;9.88;7.15;;;15.80;99.90;;;;;;5011841;28;20200;-78
2022/05/07 07:53:34;;;;;;;10.00;7.10;;;15.70;99.90;;;;;;5005800;28;20187;-78
2022/05/07 07:56:00;;;;;;;9.38;6.65;;;15.70;99.90;;;;;;5003828;28;20168;-78
2022/05/07 07:58:26;;;;;;;14.25;7.45;;;15.60;99.90;;;;;;4996302;28;20183;-78
2022/05/07 08:00:52;;;;;;;10.70;6.68;;;15.60;99.90;;;;;;4983603;28;20262;-79
2022/05/07 08:03:19;;;;;;;8.23;6.00;;;15.60;99.90;;;;;;5010208;28;20310;-79
2022/05/07 08:05:47;;;;;;;16.02;6.90;;;15.60;99.90;;;;;;5007278;28;20186;-78
2022/05/07 08:13:44;;;;;;;11.27;7.70;;;15.80;99.90;;;;;;5006148;28;20187;-79
2022/05/07 08:16:11;;;;;;;8.77;7.38;;;15.90;99.90;;;;;;5006861;28;20176;-78
2022/05/07 08:18:37;;;;;;;8.30;6.65;;;16.00;99.90;;;;;;5013487;28;20222;-78
2022/05/07 08:21:05;;;;;;;11.07;7.30;;;16.20;99.90;;;;;;4984060;28;20187;-78
2022/05/07 08:23:31;;;;;;;10.75;7.20;;;16.50;99.90;;;;;;5009788;28;20183;-79
2022/05/07 08:25:58;;;;;;;10.77;7.40;;;16.60;99.90;;;;;;4999849;28;20184;-79
2022/05/07 08:28:24;;;;;;;9.55;7.40;;;16.70;99.90;;;;;;5009976;28;20163;-78
2022/05/07 08:30:51;;;;;;;10.75;7.60;;;16.80;99.90;;;;;;4996493;28;20207;-79
2022/05/07 08:33:19;;;;;;;11.38;8.10;;;16.90;99.90;;;;;;5003639;28;20188;-78
2022/05/07 08:35:46;;;;;;;12.55;8.00;;;17.00;99.90;;;;;;5004784;28;20167;-79
2022/05/07 08:38:12;;;;;;;14.90;8.45;;;17.00;99.90;;;;;;4984365;28;20553;-78
2022/05/07 08:40:42;;;;;;;12.18;8.38;;;17.00;99.90;;;;;;4995437;28;20183;-78
2022/05/07 08:43:07;;;;;;;12.05;8.50;;;16.80;99.90;;;;;;5001451;28;20178;-79
2022/05/07 08:45:35;;;;;;;18.85;11.10;;;16.60;99.90;;;;;;5007282;28;20180;-79
2022/05/07 08:48:01;;;;;;;15.43;8.98;;;16.50;99.90;;;;;;5010115;28;20589;-79
2022/05/07 08:50:27;;;;;;;11.05;8.63;;;16.40;99.90;;;;;;4999916;28;20179;-79
2022/05/07 08:52:53;;;;;;;11.60;9.05;;;16.20;99.90;;;;;;5012574;28;20215;-79
2022/05/07 08:55:24;;;;;;;15.55;9.23;;;16.10;99.90;;;;;;4996851;28;20629;-79
2022/05/07 08:57:52;;;;;;;18.50;9.50;;;15.90;99.90;;;;;;4996935;28;20835;-79
2022/05/07 09:00:23;;;;;;;20.17;9.88;;;15.90;99.90;;;;;;4995926;28;20168;-79
2022/05/07 09:03:00;;;;;;;12.65;10.27;;;15.90;99.90;;;;;;5008821;28;20186;-79
2022/05/07 09:05:34;;;;;;;13.02;9.38;;;16.00;99.90;;;;;;5007953;28;20175;-79
2022/05/07 09:08:01;;;;;;;13.95;10.25;;;15.90;99.90;;;;;;5002178;28;20625;-78
2022/05/07 09:10:29;;;;;;;14.65;10.02;;;16.00;99.90;;;;;;5008052;28;20673;-78
2022/05/07 09:13:00;;;;;;;20.35;13.38;;;15.90;99.90;;;;;;5006875;28;20183;-79
2022/05/07 09:15:26;;;;;;;14.43;11.10;;;16.00;99.90;;;;;;5000433;28;20176;-78
2022/05/07 09:17:52;;;;;;;14.43;10.90;;;16.20;99.90;;;;;;5011767;28;20243;-78
2022/05/07 09:20:21;;;;;;;11.20;9.45;;;16.40;99.90;;;;;;4984987;28;20221;-79
2022/05/07 09:22:53;;;;;;;13.40;9.77;;;16.70;99.90;;;;;;5008893;28;20607;-78
2022/05/07 09:25:27;;;;;;;16.30;9.90;;;16.90;99.90;;;;;;4994195;28;20186;-78
2022/05/07 09:27:56;;;;;;;17.73;10.80;;;17.00;99.90;;;;;;4981381;28;20167;-78
2022/05/07 09:30:27;;;;;;;9.85;8.85;;;17.10;99.90;;;;;;5000369;28;20262;-79
2022/05/07 09:32:55;;;;;;;11.63;8.75;;;17.20;99.90;;;;;;4998403;28;20249;-78
2022/05/07 09:38:14;;;;;;;13.95;9.35;;;17.30;99.90;;;;;;4997304;28;20190;-78
2022/05/07 09:40:41;;;;;;;11.70;9.00;;;17.30;99.90;;;;;;5011539;28;20190;-78
2022/05/07 09:43:12;;;;;;;11.52;9.40;;;17.20;99.90;;;;;;5000680;28;20279;-79
2022/05/07 09:45:39;;;;;;;16.48;9.23;;;17.20;99.90;;;;;;5011968;28;20175;-79
2022/05/07 09:48:06;;;;;;;13.40;9.48;;;17.30;99.90;;;;;;5000286;28;20246;-79
2022/05/07 09:58:38;;;;;;;14.07;8.70;;;17.90;99.90;;;;;;5006467;28;20520;-78
2022/05/07 10:01:26;;;;;;;11.75;8.93;;;18.00;99.90;;;;;;4977314;28;20203;-78
2022/05/07 10:04:20;;;;;;;11.18;8.95;;;18.10;99.90;;;;;;5007577;28;20175;-78
2022/05/07 10:07:13;;;;;;;15.07;10.10;;;18.20;99.90;;;;;;5004874;28;20482;-78
2022/05/07 10:10:04;;;;;;;12.93;9.07;;;18.30;99.90;;;;;;5011153;28;20693;-79
2022/05/07 10:12:31;;;;;;;11.82;9.40;;;18.30;99.90;;;;;;5000820;28;20665;-78
2022/05/07 10:15:12;;;;;;;11.25;8.30;;;18.40;99.90;;;;;;4995174;28;20175;-78
2022/05/07 10:17:38;;;;;;;10.07;8.98;;;18.40;99.90;;;;;;4995019;28;20630;-78
2022/05/07 10:20:09;;;;;;;11.38;8.82;;;18.60;99.90;;;;;;4995083;28;20259;-78
2022/05/07 10:22:36;;;;;;;11.20;9.32;;;18.90;99.90;;;;;;4989449;28;20501;-78
2022/05/07 10:25:13;;;;;;;14.18;9.70;;;19.00;99.90;;;;;;4995079;28;20637;-79
2022/05/07 10:27:45;;;;;;;12.35;9.50;;;19.10;99.90;;;;;;4995312;28;20171;-78
2022/05/07 10:30:22;;;;;;;16.15;9.73;;;19.20;99.90;;;;;;4995082;28;20167;-79
2022/05/07 10:33:02;;;;;;;16.13;9.75;;;19.30;99.90;;;;;;5008200;28;20198;-78
2022/05/07 10:35:47;;;;;;;13.75;9.23;;;19.30;99.90;;;;;;5000434;28;20326;-79
2022/05/07 10:38:36;;;;;;;10.18;8.60;;;19.60;99.90;;;;;;4995123;28;20695;-79
2022/05/07 10:41:04;;;;;;;11.18;8.80;;;20.00;99.90;;;;;;4994348;28;20183;-79
2022/05/07 10:43:39;;;;;;;12.50;8.75;;;20.00;99.90;;;;;;4996820;28;20179;-80
2022/05/07 10:46:16;;;;;;;13.10;8.68;;;20.20;99.90;;;;;;5002199;28;20178;-79
2022/05/07 10:48:59;;;;;;;13.20;9.32;;;20.10;99.90;;;;;;5002385;28;20378;-79
2022/05/07 10:51:53;;;;;;;11.32;8.25;;;20.00;99.90;;;;;;5011077;28;20203;-79
2022/05/07 10:54:23;;;;;;;12.55;9.10;;;20.00;99.90;;;;;;5003383;28;20179;-80
2022/05/07 10:56:54;;;;;;;10.40;8.30;;;20.00;99.90;;;;;;5001275;28;20175;-79
2022/05/07 10:59:23;;;;;;;11.02;8.35;;;20.00;99.90;;;;;;5010356;28;20171;-80
2022/05/07 11:01:49;;;;;;;9.77;8.00;;;20.40;99.90;;;;;;4999480;28;20175;-80
2022/05/07 11:04:18;;;;;;;10.68;8.68;;;20.70;99.90;;;;;;5005652;28;20214;-78
2022/05/07 11:06:53;;;;;;;10.43;8.23;;;20.80;99.90;;;;;;5003512;28;20278;-78
2022/05/07 11:09:26;;;;;;;11.23;7.88;;;21.00;99.90;;;;;;5009905;28;20170;-79
2022/05/07 11:11:54;;;;;;;10.80;7.90;;;21.20;99.90;;;;;;4998532;28;20298;-80
2022/05/07 11:14:22;;;;;;;11.98;7.97;;;21.50;99.90;;;;;;5003063;28;20615;-79
2022/05/07 11:16:48;;;;;;;16.48;9.10;;;21.70;98.50;;;;;;5001428;28;20363;-79
2022/05/07 11:19:43;;;;;;;13.02;8.77;;;22.00;97.70;;;;;;5010519;28;20179;-79
2022/05/07 11:22:10;;;;;;;12.70;8.13;;;22.10;98.60;;;;;;5000895;28;20191;-79
2022/05/07 11:24:36;;;;;;;11.55;7.57;;;22.30;97.90;;;;;;5002157;28;20175;-80
2022/05/07 11:27:05;;;;;;;10.77;7.22;;;22.10;96.90;;;;;;5009153;28;20633;-79
2022/05/07 11:29:32;;;;;;;14.07;8.55;;;21.80;97.70;;;;;;4980045;28;20176;-80
2022/05/07 11:32:07;;;;;;;10.90;7.25;;;21.70;98.00;;;;;;5007858;28;20238;-79
2022/05/07 11:34:41;;;;;;;12.02;7.50;;;21.80;98.60;;;;;;4997821;28;20175;-79
2022/05/07 11:37:10;;;;;;;10.85;7.90;;;22.10;97.80;;;;;;4995589;28;20191;-80
2022/05/07 11:40:01;;;;;;;10.35;7.85;;;22.40;96.70;;;;;;5003225;28;20164;-79
2022/05/07 11:42:47;;;;;;;13.10;8.93;;;22.10;96.60;;;;;;4980406;28;20195;-79
2022/05/07 11:45:29;;;;;;;12.25;8.23;;;21.50;96.60;;;;;;4989519;28;20176;-80
2022/05/07 11:48:05;;;;;;;11.25;8.45;;;21.20;96.90;;;;;;4993818;28;20652;-79
2022/05/07 11:50:41;;;;;;;16.40;9.00;;;20.80;97.90;;;;;;4993722;28;20191;-79
2022/05/07 11:53:14;;;;;;;12.55;8.70;;;20.50;97.60;;;;;;4996495;28;20668;-79
2022/05/07 11:55:41;;;;;;;9.55;8.13;;;20.20;98.70;;;;;;4998336;28;20275;-79
2022/05/07 11:58:20;;;;;;;11.82;9.07;;;20.30;98.90;;;;;;5008881;28;20176;-80
2022/05/07 12:00:50;;;;;;;10.63;8.68;;;20.50;99.00;;;;;;5002898;28;20258;-80
2022/05/07 12:03:23;;;;;;;11.40;8.90;;;20.60;97.20;;;;;;4999786;28;20677;-79
2022/05/07 12:05:51;;;;;;;12.38;7.50;;;20.70;97.90;;;;;;5010160;28;20182;-79
2022/05/07 12:08:19;;;;;;;13.52;7.70;;;20.80;98.40;;;;;;4998503;28;20220;-79
2022/05/07 12:10:46;;;;;;;11.07;6.95;;;21.20;98.60;;;;;;5004872;28;20568;-80
2022/05/07 12:13:15;;;;;;;8.20;7.38;;;21.50;96.70;;;;;;4996376;28;20215;-79
2022/05/07 12:18:27;;;;;;;8.98;7.05;;;21.90;96.90;;;;;;5004387;28;20238;-79
2022/05/07 12:20:54;;;;;;;12.07;7.80;;;22.30;95.10;;;;;;5005898;28;20210;-80
2022/05/07 12:31:32;;;;;;;11.15;7.63;;;22.40;93.10;;;;;;4997848;28;20242;-80
2022/05/07 12:33:58;;;;;;;11.80;7.47;;;22.30;92.90;;;;;;5013068;28;20172;-80
2022/05/07 12:36:23;;;;;;;7.25;5.43;;;22.30;93.70;;;;;;5004043;28;20614;-80
2022/05/07 12:38:49;;;;;;;11.98;6.35;;;22.50;95.30;;;;;;5008287;28;20602;-80
2022/05/07 12:41:15;;;;;;;9.30;5.72;;;22.60;93.10;;;;;;4985284;28;20182;-80
2022/05/07 12:43:41;;;;;;;9.75;5.80;;;22.70;93.70;;;;;;5012392;28;20184;-81
2022/05/07 12:46:07;;;;;;;9.27;6.18;;;22.50;91.90;;;;;;4997915;28;20221;-79
2022/05/07 12:48:32;;;;;;;6.55;5.40;;;22.20;91.90;;;;;;4999158;28;20185;-80
2022/05/07 12:50:58;;;;;;;7.55;4.95;;;22.10;94.50;;;;;;5010443;28;20199;-79
2022/05/07 12:53:24;;;;;;;7.93;4.63;;;22.20;95.10;;;;;;5005417;28;20180;-79
2022/05/07 12:55:50;;;;;;;8.15;3.97;;;22.30;93.10;;;;;;5003260;28;20191;-79
2022/05/07 12:58:16;;;;;;;22.85;4.47;;;22.20;91.50;;;;;;5012492;28;20610;-80
2022/05/07 13:00:42;;;;;;;5.85;3.72;;;22.10;91.60;;;;;;4984189;28;20255;-80
2022/05/07 13:03:09;;;;;;;5.63;3.67;;;22.10;90.90;;;;;;5009108;28;20250;-80
2022/05/07 13:05:35;;;;;;;4.75;3.13;;;22.50;91.60;;;;;;4989621;28;20183;-81
2022/05/07 13:08:03;;;;;;;8.65;3.72;;;22.90;92.40;;;;;;5002002;28;20638;-79
2022/05/07 13:10:30;;;;;;;8.23;3.50;;;23.20;90.70;;;;;;5012664;28;20183;-79
2022/05/07 13:12:57;;;;;;;10.40;4.03;;;23.30;90.70;;;;;;5001359;28;20207;-80
2022/05/07 13:15:22;;;;;;;8.23;4.38;;;22.90;90.30;;;;;;5006771;28;20168;-79
2022/05/07 13:17:48;;;;;;;6.68;4.07;;;22.50;90.70;;;;;;5008716;28;20724;-79
2022/05/07 13:20:14;;;;;;;7.20;3.83;;;22.10;90.90;;;;;;4999931;28;20207;-80
2022/05/07 13:22:39;;;;;;;5.60;4.22;;;21.70;91.50;;;;;;5011401;28;20235;-79
2022/05/07 13:25:06;;;;;;;7.35;4.68;;;21.40;91.80;;;;;;5002876;28;20167;-79
2022/05/07 13:27:33;;;;;;;11.63;4.93;;;21.10;92.60;;;;;;5004876;28;20183;-79
2022/05/07 13:29:59;;;;;;;6.32;4.28;;;21.10;92.80;;;;;;5009918;28;20202;-80
2022/05/07 13:32:24;;;;;;;8.95;4.90;;;21.00;92.50;;;;;;4998055;28;20203;-79